createdAt,value
2022-08-01T00:00:59.360Z,98417.27
2022-08-01T00:03:32.066Z,98418.88
2022-08-01T00:06:04.672Z,98415.05
2022-08-01T00:08:36.838Z,98411.38
2022-08-01T00:11:10.771Z,98415.27
2022-08-01T00:13:45.110Z,98415.81
2022-08-01T00:16:18.394Z,98415.65
2022-08-01T00:18:52.387Z,98414.77
2022-08-01T00:21:25.251Z,98417.24
2022-08-01T00:24:00.276Z,98414.09
2022-08-01T00:26:32.833Z,98413.90
2022-08-01T00:29:10.134Z,98409.34
2022-08-01T00:31:58.586Z,98408.83
2022-08-01T00:34:30.453Z,98407.08
2022-08-01T00:37:05.069Z,98403.58
2022-08-01T00:39:37.636Z,98402.17
2022-08-01T00:42:12.039Z,98402.89
2022-08-01T00:44:44.853Z,98406.77
2022-08-01T00:47:16.739Z,98405.20
2022-08-01T00:49:49.413Z,98405.91
2022-08-01T00:52:22.263Z,98406.45
2022-08-01T00:54:54.235Z,98403.11
2022-08-01T00:58:03.637Z,98405.59
2022-08-01T01:00:27.157Z,98408.77
2022-08-01T01:03:00.621Z,98412.98
2022-08-01T01:05:37.279Z,98410.19
2022-08-01T01:08:13.780Z,98413.00
2022-08-01T01:10:50.772Z,98413.55
2022-08-01T01:13:28.575Z,98410.57
2022-08-01T01:16:04.764Z,98409.53
2022-08-01T01:18:40.608Z,98410.75
2022-08-01T01:21:33.340Z,98413.58
2022-08-01T01:24:19.869Z,98409.20
2022-08-01T01:26:57.353Z,98411.84
2022-08-01T01:29:58.786Z,98407.10
2022-08-01T01:32:35.197Z,98407.10
2022-08-01T01:35:12.268Z,98407.98
2022-08-01T01:37:46.978Z,98407.29
2022-08-01T01:40:22.811Z,98401.50
2022-08-01T01:42:56.858Z,98400.64
2022-08-01T01:45:29.681Z,98401.16
2022-08-01T01:48:02.675Z,98400.81
2022-08-01T01:50:36.577Z,98402.59
2022-08-01T01:53:15.421Z,98402.94
2022-08-01T01:55:52.907Z,98401.88
2022-08-01T01:58:26.649Z,98399.79
2022-08-01T02:01:02.869Z,98398.92
2022-08-01T02:03:37.855Z,98394.88
2022-08-01T02:06:10.621Z,98394.19
2022-08-01T02:08:44.373Z,98392.95
2022-08-01T02:11:22.639Z,98396.30
2022-08-01T02:14:03.288Z,98399.45
2022-08-01T02:16:38.631Z,98399.45
2022-08-01T02:19:12.843Z,98395.41
2022-08-01T02:21:50.379Z,98397.16
2022-08-01T02:24:30.403Z,98395.39
2022-08-01T02:27:07.597Z,98393.27
2022-08-01T02:29:46.294Z,98393.63
2022-08-01T02:32:26.328Z,98390.46
2022-08-01T02:35:03.099Z,98392.92
2022-08-01T02:37:37.546Z,98395.20
2022-08-01T02:40:18.345Z,98399.93
2022-08-01T02:42:54.121Z,98398.01
2022-08-01T02:45:29.749Z,98394.15
2022-08-01T02:48:06.487Z,98394.50
2022-08-01T02:50:40.457Z,98395.55
2022-08-01T02:53:13.486Z,98398.16
2022-08-01T02:55:49.353Z,98397.28
2022-08-01T02:58:29.355Z,98402.20
2022-08-01T03:01:03.776Z,98406.91
2022-08-01T03:03:37.565Z,98407.44
2022-08-01T03:06:11.212Z,98404.80
2022-08-01T03:08:44.147Z,98409.36
2022-08-01T03:11:18.636Z,98405.15
2022-08-01T03:13:52.980Z,98406.73
2022-08-01T03:16:26.816Z,98407.59
2022-08-01T03:19:00.569Z,98410.58
2022-08-01T03:21:35.485Z,98412.85
2022-08-01T03:24:10.435Z,98406.71
2022-08-01T03:26:44.697Z,98409.52
2022-08-01T03:29:20.879Z,98403.04
2022-08-01T03:31:53.695Z,98401.80
2022-08-01T03:34:25.980Z,98404.08
2022-08-01T03:37:06.447Z,98404.96
2022-08-01T03:39:45.450Z,98413.19
2022-08-01T03:42:32.450Z,98412.50
2022-08-01T03:45:07.365Z,98418.13
2022-08-01T03:47:44.633Z,98414.99
2022-08-01T03:50:18.935Z,98414.14
2022-08-01T03:52:52.946Z,98413.80
2022-08-01T03:55:25.879Z,98413.48
2022-08-01T03:57:59.407Z,98417.00
2022-08-01T04:00:32.929Z,98419.46
2022-08-01T04:03:05.733Z,98422.96
2022-08-01T04:05:38.984Z,98425.95
2022-08-01T04:08:12.225Z,98427.17
2022-08-01T04:10:45.493Z,98429.61
2022-08-01T04:13:18.706Z,98431.55
2022-08-01T04:15:52.205Z,98431.54
2022-08-01T04:18:24.859Z,98429.42
2022-08-01T04:20:57.892Z,98438.20
2022-08-01T04:23:32.458Z,98436.60
2022-08-01T04:26:06.664Z,98427.63
2022-08-01T04:28:40.597Z,98422.85
2022-08-01T04:31:13.798Z,98419.48
2022-08-01T04:33:50.077Z,98421.89
2022-08-01T04:36:24.845Z,98420.60
2022-08-01T04:39:01.030Z,98425.33
2022-08-01T04:41:34.270Z,98421.40
2022-08-01T04:44:08.594Z,98421.86
2022-08-01T04:46:41.548Z,98424.45
2022-08-01T04:49:18.269Z,98427.73
2022-08-01T04:52:03.207Z,98425.03
2022-08-01T04:54:40.023Z,98422.30
2022-08-01T04:57:11.984Z,98422.73
2022-08-01T04:59:47.773Z,98425.98
2022-08-01T05:02:21.390Z,98421.86
2022-08-01T05:04:54.220Z,98421.61
2022-08-01T05:07:28.153Z,98418.92
2022-08-01T05:10:03.254Z,98419.86
2022-08-01T05:12:37.731Z,98423.81
2022-08-01T05:15:15.448Z,98425.15
2022-08-01T05:17:48.600Z,98419.21
2022-08-01T05:20:22.875Z,98423.14
2022-08-01T05:22:58.309Z,98420.38
2022-08-01T05:25:56.944Z,98416.90
2022-08-01T05:28:23.291Z,98419.44
2022-08-01T05:30:56.884Z,98420.03
2022-08-01T05:33:29.033Z,98425.75
2022-08-01T05:36:02.625Z,98424.23
2022-08-01T05:38:36.538Z,98416.15
2022-08-01T05:41:09.304Z,98419.18
2022-08-01T05:43:42.965Z,98414.27
2022-08-01T05:46:15.657Z,98416.96
2022-08-01T05:48:48.310Z,98416.14
2022-08-01T05:51:20.900Z,98416.71
2022-08-01T05:53:53.397Z,98418.69
2022-08-01T05:56:29.390Z,98418.00
2022-08-01T05:59:05.103Z,98415.91
2022-08-01T06:01:38.438Z,98416.98
2022-08-01T06:04:10.843Z,98416.65
2022-08-01T06:06:43.630Z,98413.48
2022-08-01T06:09:16.819Z,98413.39
2022-08-01T06:11:49.627Z,98419.41
2022-08-01T06:14:21.894Z,98418.01
2022-08-01T06:16:53.778Z,98421.20
2022-08-01T06:19:27.364Z,98418.82
2022-08-01T06:22:00.518Z,98415.57
2022-08-01T06:24:33.363Z,98416.26
2022-08-01T06:27:06.342Z,98413.65
2022-08-01T06:29:56.689Z,98418.06
2022-08-01T06:32:30.889Z,98416.77
2022-08-01T06:35:04.708Z,98416.64
2022-08-01T06:37:37.042Z,98422.48
2022-08-01T06:40:16.673Z,98424.71
2022-08-01T06:42:50.060Z,98426.30
2022-08-01T06:45:24.003Z,98422.50
2022-08-01T06:47:57.630Z,98425.45
2022-08-01T06:50:30.560Z,98428.57
2022-08-01T06:53:02.687Z,98427.31
2022-08-01T06:55:37.920Z,98423.94
2022-08-01T06:58:10.639Z,98424.58
2022-08-01T07:00:44.218Z,98425.73
2022-08-01T07:03:16.961Z,98427.21
2022-08-01T07:05:49.863Z,98423.51
2022-08-01T07:08:25.473Z,98417.89
2022-08-01T07:11:00.483Z,98417.14
2022-08-01T07:13:36.710Z,98416.41
2022-08-01T07:16:17.876Z,98416.42
2022-08-01T07:18:50.757Z,98413.01
2022-08-01T07:21:40.665Z,98412.25
2022-08-01T07:24:16.960Z,98410.45
2022-08-01T07:26:54.582Z,98407.23
2022-08-01T07:29:28.877Z,98404.69
2022-08-01T07:32:01.617Z,98406.04
2022-08-01T07:34:35.835Z,98404.48
2022-08-01T07:37:08.892Z,98405.24
2022-08-01T07:39:41.955Z,98398.77
2022-08-01T07:42:16.555Z,98395.21
2022-08-01T07:44:49.146Z,98399.02
2022-08-01T07:47:27.478Z,98398.81
2022-08-01T07:50:05.299Z,98395.83
2022-08-01T07:52:37.731Z,98390.23
2022-08-01T07:55:12.155Z,98392.31
2022-08-01T07:57:49.567Z,98392.20
2022-08-01T08:00:26.022Z,98391.48
2022-08-01T08:03:00.371Z,98392.70
2022-08-01T08:05:58.423Z,98390.93
2022-08-01T08:08:27.399Z,98388.84
2022-08-01T08:10:59.975Z,98383.86
2022-08-01T08:13:32.693Z,98380.86
2022-08-01T08:16:06.354Z,98374.84
2022-08-01T08:18:39.837Z,98376.52
2022-08-01T08:21:12.084Z,98375.38
2022-08-01T08:24:05.036Z,98377.06
2022-08-01T08:26:38.792Z,98377.35
2022-08-01T08:29:14.109Z,98380.48
2022-08-01T08:31:51.195Z,98375.27
2022-08-01T08:34:26.202Z,98380.81
2022-08-01T08:36:59.247Z,98379.20
2022-08-01T08:39:41.537Z,98376.20
2022-08-01T08:42:15.924Z,98376.69
2022-08-01T08:44:48.398Z,98378.08
2022-08-01T08:47:21.267Z,98382.05
2022-08-01T08:49:56.593Z,98386.94
2022-08-01T08:52:29.709Z,98385.11
2022-08-01T08:55:01.927Z,98384.42
2022-08-01T08:57:34.862Z,98384.95
2022-08-01T09:00:10.622Z,98389.04
2022-08-01T09:02:51.241Z,98390.77
2022-08-01T09:05:38.554Z,98391.05
2022-08-01T09:08:15.753Z,98392.63
2022-08-01T09:10:47.856Z,98395.71
2022-08-01T09:13:20.749Z,98395.52
2022-08-01T09:15:57.065Z,98394.98
2022-08-01T09:18:37.825Z,98395.09
2022-08-01T09:21:18.287Z,98395.64
2022-08-01T09:23:53.323Z,98397.16
2022-08-01T09:26:36.291Z,98402.04
2022-08-01T09:29:11.226Z,98398.70
2022-08-01T09:31:50.807Z,98400.58
2022-08-01T09:34:31.475Z,98400.58
2022-08-01T09:37:07.797Z,98406.45
2022-08-01T09:39:44.411Z,98403.94
2022-08-01T09:42:29.513Z,98407.71
2022-08-01T09:45:03.162Z,98410.37
2022-08-01T09:47:42.698Z,98412.41
2022-08-01T09:50:17.625Z,98407.73
2022-08-01T09:52:58.199Z,98408.23
2022-08-01T09:55:31.495Z,98410.92
2022-08-01T09:58:05.661Z,98414.52
2022-08-01T10:00:45.252Z,98413.02
2022-08-01T10:03:26.312Z,98419.79
2022-08-01T10:06:00.565Z,98417.93
2022-08-01T10:08:49.738Z,98416.23
2022-08-01T10:11:35.896Z,98419.47
2022-08-01T10:14:13.268Z,98420.08
2022-08-01T10:16:56.674Z,98420.49
2022-08-01T10:19:34.020Z,98420.58
2022-08-01T10:22:12.887Z,98414.05
2022-08-01T10:24:49.495Z,98410.16
2022-08-01T10:27:37.754Z,98410.83
2022-08-01T10:30:19.918Z,98411.58
2022-08-01T10:32:56.768Z,98411.75
2022-08-01T10:35:46.556Z,98414.45
2022-08-01T10:38:20.697Z,98413.33
2022-08-01T10:40:55.958Z,98412.50
2022-08-01T10:43:29.249Z,98407.66
2022-08-01T10:46:05.150Z,98407.31
2022-08-01T10:48:44.001Z,98405.08
2022-08-01T10:51:19.120Z,98407.76
2022-08-01T10:53:56.243Z,98402.60
2022-08-01T10:56:43.008Z,98400.41
2022-08-01T10:59:29.157Z,98398.59
2022-08-01T11:02:31.706Z,98396.75
2022-08-01T11:05:09.645Z,98393.20
2022-08-01T11:07:50.838Z,98395.46
2022-08-01T11:10:28.313Z,98393.80
2022-08-01T11:13:03.069Z,98396.92
2022-08-01T11:15:50.547Z,98395.75
2022-08-01T11:18:37.823Z,98398.06
2022-08-01T11:21:59.279Z,98394.18
2022-08-01T11:24:07.136Z,98399.63
2022-08-01T11:26:40.742Z,98397.40
2022-08-01T11:29:22.384Z,98399.48
2022-08-01T11:31:56.127Z,98396.34
2022-08-01T11:34:56.852Z,98400.85
2022-08-01T11:37:30.619Z,98401.81
2022-08-01T11:40:20.621Z,98406.31
2022-08-01T11:43:22.440Z,98400.48
2022-08-01T11:45:56.493Z,98403.32
2022-08-01T11:48:30.543Z,98404.52
2022-08-01T11:51:02.514Z,98406.31
2022-08-01T11:53:34.709Z,98406.89
2022-08-01T11:56:09.446Z,98409.55
2022-08-01T11:58:42.615Z,98402.39
2022-08-01T12:01:16.416Z,98401.61
2022-08-01T12:03:58.229Z,98402.92
2022-08-01T12:06:32.345Z,98399.19
2022-08-01T12:09:21.521Z,98400.58
2022-08-01T12:11:53.962Z,98400.84
2022-08-01T12:14:26.001Z,98396.60
2022-08-01T12:16:58.560Z,98396.92
2022-08-01T12:19:31.548Z,98394.77
2022-08-01T12:22:13.438Z,98389.00
2022-08-01T12:24:46.437Z,98387.40
2022-08-01T12:27:28.707Z,98385.20
2022-08-01T12:30:05.595Z,98384.64
2022-08-01T12:32:38.879Z,98382.39
2022-08-01T12:35:17.904Z,98382.14
2022-08-01T12:37:52.710Z,98382.55
2022-08-01T12:40:26.234Z,98371.02
2022-08-01T12:43:00.675Z,98375.33
2022-08-01T12:45:35.919Z,98372.80
2022-08-01T12:48:12.651Z,98372.98
2022-08-01T12:50:47.309Z,98374.60
2022-08-01T12:53:21.517Z,98370.30
2022-08-01T12:56:00.096Z,98373.39
2022-08-01T12:58:37.168Z,98369.28
2022-08-01T13:01:11.841Z,98371.63
2022-08-01T13:03:46.480Z,98369.21
2022-08-01T13:06:20.218Z,98371.64
2022-08-01T13:08:52.715Z,98365.19
2022-08-01T13:11:24.604Z,98363.34
2022-08-01T13:13:58.306Z,98360.54
2022-08-01T13:16:55.935Z,98358.21
2022-08-01T13:19:29.834Z,98359.54
2022-08-01T13:22:06.069Z,98360.27
2022-08-01T13:24:39.435Z,98360.32
2022-08-01T13:27:31.198Z,98357.45
2022-08-01T13:30:15.717Z,98360.63
2022-08-01T13:32:59.144Z,98361.64
2022-08-01T13:35:31.757Z,98356.75
2022-08-01T13:38:03.907Z,98354.73
2022-08-01T13:40:36.478Z,98358.61
2022-08-01T13:43:09.108Z,98355.51
2022-08-01T13:45:41.601Z,98358.05
2022-08-01T13:48:18.699Z,98359.61
2022-08-01T13:51:02.078Z,98360.79
2022-08-01T13:53:44.664Z,98354.35
2022-08-01T13:56:19.447Z,98355.20
2022-08-01T13:58:52.287Z,98355.30
2022-08-01T14:01:32.309Z,98354.45
2022-08-01T14:04:07.366Z,98352.92
2022-08-01T14:06:40.424Z,98353.95
2022-08-01T14:09:24.095Z,98352.57
2022-08-01T14:11:57.086Z,98355.48
2022-08-01T14:14:30.169Z,98355.73
2022-08-01T14:17:02.890Z,98352.49
2022-08-01T14:19:38.239Z,98354.48
2022-08-01T14:22:12.424Z,98357.01
2022-08-01T14:24:46.003Z,98354.36
2022-08-01T14:27:19.627Z,98357.79
2022-08-01T14:30:00.270Z,98361.05
2022-08-01T14:32:35.336Z,98362.06
2022-08-01T14:35:08.743Z,98361.91
2022-08-01T14:37:44.543Z,98365.64
2022-08-01T14:40:19.791Z,98369.95
2022-08-01T14:42:52.272Z,98378.98
2022-08-01T14:45:25.363Z,98383.43
2022-08-01T14:47:59.008Z,98387.87
2022-08-01T14:50:31.906Z,98386.95
2022-08-01T14:53:04.430Z,98383.17
2022-08-01T14:55:41.794Z,98378.65
2022-08-01T14:58:15.786Z,98371.87
2022-08-01T15:00:49.386Z,98369.23
2022-08-01T15:03:22.411Z,98365.13
2022-08-01T15:05:54.642Z,98365.27
2022-08-01T15:08:27.842Z,98360.31
2022-08-01T15:11:03.689Z,98361.79
2022-08-01T15:13:39.220Z,98365.27
2022-08-01T15:16:14.735Z,98370.48
2022-08-01T15:18:48.663Z,98368.46
2022-08-01T15:21:39.852Z,98371.83
2022-08-01T15:24:14.560Z,98368.49
2022-08-01T15:26:50.493Z,98369.14
2022-08-01T15:29:24.051Z,98369.63
2022-08-01T15:31:57.624Z,98369.45
2022-08-01T15:34:30.701Z,98373.41
2022-08-01T15:37:04.338Z,98374.32
2022-08-01T15:39:37.701Z,98370.12
2022-08-01T15:42:21.579Z,98370.60
2022-08-01T15:44:59.484Z,98371.58
2022-08-01T15:47:31.487Z,98377.51
2022-08-01T15:50:08.652Z,98376.74
2022-08-01T15:52:41.375Z,98380.55
2022-08-01T15:55:14.193Z,98376.45
2022-08-01T15:57:47.800Z,98376.74
2022-08-01T16:00:20.578Z,98377.07
2022-08-01T16:02:53.834Z,98376.75
2022-08-01T16:05:26.060Z,98377.64
2022-08-01T16:08:01.777Z,98376.81
2022-08-01T16:10:34.257Z,98377.59
2022-08-01T16:13:07.824Z,98376.46
2022-08-01T16:15:41.007Z,98380.67
2022-08-01T16:18:16.358Z,98381.26
2022-08-01T16:20:49.352Z,98379.30
2022-08-01T16:23:22.727Z,98380.91
2022-08-01T16:25:55.619Z,98381.21
2022-08-01T16:28:29.160Z,98385.83
2022-08-01T16:31:15.827Z,98381.77
2022-08-01T16:34:27.570Z,98385.16
2022-08-01T16:37:07.554Z,98392.17
2022-08-01T16:39:40.094Z,98392.02
2022-08-01T16:42:27.659Z,98395.67
2022-08-01T16:45:08.619Z,98397.64
2022-08-01T16:48:10.210Z,98397.48
2022-08-01T16:51:09.384Z,98395.54
2022-08-01T16:53:41.903Z,98400.17
2022-08-01T16:56:14.387Z,98400.41
2022-08-01T16:58:46.998Z,98401.30
2022-08-01T17:01:58.659Z,98401.96
2022-08-01T17:04:13.524Z,98405.36
2022-08-01T17:06:46.386Z,98400.65
2022-08-01T17:09:18.749Z,98405.70
2022-08-01T17:11:51.974Z,98405.42
2022-08-01T17:14:24.225Z,98408.89
2022-08-01T17:16:57.747Z,98409.55
2022-08-01T17:19:33.077Z,98410.69
2022-08-01T17:22:05.827Z,98416.04
2022-08-01T17:24:39.112Z,98413.95
2022-08-01T17:27:13.300Z,98417.44
2022-08-01T17:29:51.605Z,98418.73
2022-08-01T17:32:26.653Z,98417.86
2022-08-01T17:35:03.168Z,98417.58
2022-08-01T17:37:38.685Z,98419.95
2022-08-01T17:40:39.254Z,98420.54
2022-08-01T17:43:07.246Z,98425.55
2022-08-01T17:45:50.550Z,98428.45
2022-08-01T17:48:24.140Z,98426.94
2022-08-01T17:50:58.170Z,98428.08
2022-08-01T17:53:57.090Z,98432.48
2022-08-01T17:56:33.626Z,98432.21
2022-08-01T17:59:10.091Z,98433.99
2022-08-01T18:01:45.597Z,98441.05
2022-08-01T18:04:26.951Z,98442.77
2022-08-01T18:07:10.443Z,98451.13
2022-08-01T18:10:12.263Z,98454.65
2022-08-01T18:12:49.405Z,98456.02
2022-08-01T18:15:27.001Z,98460.13
2022-08-01T18:18:08.629Z,98463.28
2022-08-01T18:20:41.816Z,98463.41
2022-08-01T18:23:22.683Z,98464.76
2022-08-01T18:26:01.506Z,98464.46
2022-08-01T18:28:42.069Z,98465.62
2022-08-01T18:31:27.722Z,98466.61
2022-08-01T18:34:28.526Z,98465.45
2022-08-01T18:37:06.089Z,98470.75
2022-08-01T18:39:46.569Z,98474.27
2022-08-01T18:42:20.004Z,98476.23
2022-08-01T18:44:54.087Z,98481.44
2022-08-01T18:47:26.758Z,98484.27
2022-08-01T18:50:06.697Z,98489.73
2022-08-01T18:52:44.181Z,98494.38
2022-08-01T18:55:22.111Z,98496.23
2022-08-01T18:57:55.800Z,98498.06
2022-08-01T19:00:27.859Z,98505.95
2022-08-01T19:03:27.466Z,98504.14
2022-08-01T19:06:08.442Z,98506.04
2022-08-01T19:09:08.004Z,98509.36
2022-08-01T19:12:07.407Z,98512.90
2022-08-01T19:14:43.636Z,98514.72
2022-08-01T19:17:18.442Z,98515.19
2022-08-01T19:19:59.515Z,98514.44
2022-08-01T19:22:33.162Z,98514.02
2022-08-01T19:25:11.462Z,98517.27
2022-08-01T19:27:54.781Z,98520.52
2022-08-01T19:30:31.228Z,98519.68
2022-08-01T19:33:06.378Z,98515.44
2022-08-01T19:35:40.539Z,98520.79
2022-08-01T19:38:18.306Z,98522.06
2022-08-01T19:40:53.650Z,98536.25
2022-08-01T19:44:17.271Z,98536.64
2022-08-01T19:50:00.863Z,98543.77
2022-08-01T19:52:38.563Z,98544.47
2022-08-01T19:55:14.964Z,98552.95
2022-08-01T19:58:28.562Z,98551.33
2022-08-01T20:01:06.448Z,98549.95
2022-08-01T20:03:48.112Z,98552.90
2022-08-01T20:06:26.452Z,98557.16
2022-08-01T20:09:04.025Z,98558.55
2022-08-01T20:11:39.335Z,98558.16
2022-08-01T20:14:20.716Z,98560.95
2022-08-01T20:17:16.271Z,98566.53
2022-08-01T20:19:50.637Z,98570.16
2022-08-01T20:22:31.483Z,98570.75
2022-08-01T20:25:12.958Z,98576.30
2022-08-01T20:27:49.969Z,98580.59
2022-08-01T20:30:22.984Z,98577.27
2022-08-01T20:33:00.039Z,98579.61
2022-08-01T20:35:52.316Z,98577.71
2022-08-01T20:38:52.708Z,98579.91
2022-08-01T20:41:33.377Z,98571.98
2022-08-01T20:44:17.433Z,98572.17
2022-08-01T20:46:52.355Z,98571.98
2022-08-01T20:49:27.265Z,98574.23
2022-08-01T20:52:11.373Z,98578.42
2022-08-01T20:55:18.332Z,98574.45
2022-08-01T20:57:53.842Z,98575.45
2022-08-01T21:00:49.230Z,98576.83
2022-08-01T21:03:27.499Z,98580.48
2022-08-01T21:13:01.391Z,98571.48
2022-08-01T21:16:23.857Z,98573.75
2022-08-01T21:19:49.013Z,98572.63
2022-08-01T21:22:55.211Z,98576.64
2022-08-01T21:25:34.997Z,98578.95
2022-08-01T21:28:10.060Z,98581.64
2022-08-01T21:30:55.439Z,98584.20
2022-08-01T21:36:59.579Z,98592.21
2022-08-01T21:39:35.749Z,98592.02
2022-08-01T21:42:15.184Z,98602.45
2022-08-01T21:44:51.988Z,98600.45
2022-08-01T21:47:54.888Z,98600.74
2022-08-01T21:50:37.155Z,98603.35
2022-08-01T21:53:17.014Z,98605.20
2022-08-01T21:56:33.209Z,98603.37
2022-08-01T21:59:40.560Z,98599.75
2022-08-01T22:02:19.709Z,98603.38
2022-08-01T22:04:59.283Z,98601.83
2022-08-01T22:07:41.356Z,98599.04
2022-08-01T22:13:22.451Z,98596.46
2022-08-01T22:15:59.165Z,98594.17
2022-08-01T22:18:35.943Z,98588.34
2022-08-01T22:21:12.267Z,98590.50
2022-08-01T22:23:46.428Z,98596.52
2022-08-01T22:26:24.662Z,98593.71
2022-08-01T22:29:09.740Z,98592.86
2022-08-01T22:31:48.766Z,98593.81
2022-08-01T22:34:23.138Z,98594.02
2022-08-01T22:37:55.874Z,98594.75
2022-08-01T22:41:11.370Z,98595.71
2022-08-01T22:44:14.681Z,98600.38
2022-08-01T22:47:21.487Z,98599.87
2022-08-01T22:50:09.950Z,98601.11
2022-08-01T22:52:56.194Z,98602.38
2022-08-01T22:55:57.790Z,98599.96
2022-08-01T22:58:51.841Z,98602.11
2022-08-01T23:01:53.705Z,98600.23
2022-08-01T23:04:35.049Z,98597.63
2022-08-01T23:07:10.190Z,98599.79
2022-08-01T23:09:53.873Z,98600.91
2022-08-01T23:12:31.407Z,98602.89
2022-08-01T23:15:33.923Z,98600.66
2022-08-01T23:18:11.339Z,98600.15
2022-08-01T23:21:09.098Z,98603.58
2022-08-01T23:24:06.372Z,98600.61
2022-08-01T23:26:41.806Z,98601.73
2022-08-01T23:29:16.897Z,98597.69
2022-08-01T23:32:16.656Z,98598.45
2022-08-01T23:34:59.776Z,98603.98
2022-08-01T23:38:02.887Z,98607.59
2022-08-01T23:40:38.976Z,98607.98
2022-08-01T23:43:14.617Z,98609.46
2022-08-01T23:46:19.130Z,98607.58
2022-08-01T23:48:52.922Z,98610.30
2022-08-01T23:51:28.553Z,98613.37
2022-08-01T23:54:26.563Z,98611.14
2022-08-01T23:57:03.787Z,98611.38
2022-08-01T23:59:52.986Z,98611.27
